< Typhoon 197211 1972 Season Typhoon 197213 >
Typhoon 197212 (WINNIE)
General InformationTrack Information on Google Maps || Disaster Info.ResourceGoogle EarthGE AnimationAtom FeedGeoJSON
Detalied Best Track (Time Zone = UTC)
Year Month Day Hour Lat. Long. Pressure (hPa) Wind (kt) Class Image Chart
1972 7 29 00 19.7 130.5 1000 0 2 -- Chart
1972 7 29 06 19.5 129.9 999 0 2 -- Chart
1972 7 29 12 18.9 129.4 998 0 2 -- Chart
1972 7 29 18 18.2 129.5 998 0 2 -- Chart
1972 7 30 00 18.0 130.4 998 0 2 -- Chart
1972 7 30 06 18.7 131.3 998 0 2 -- Chart
1972 7 30 12 19.9 131.4 998 0 2 -- Chart
1972 7 30 18 21.0 130.9 998 0 2 -- Chart
1972 7 31 00 22.0 130.0 998 0 2 -- Chart
1972 7 31 06 22.7 129.0 996 0 2 -- Chart
1972 7 31 12 23.7 127.4 994 0 2 -- Chart
1972 7 31 18 24.5 125.7 990 0 9 -- Chart
1972 8 1 00 25.1 124.1 990 0 9 -- Chart
1972 8 1 06 25.7 122.4 990 0 9 -- Chart
1972 8 1 12 26.6 121.5 990 0 9 -- Chart
1972 8 1 18 27.5 120.5 990 0 9 -- Chart
1972 8 2 00 28.0 119.4 996 0 2 -- Chart
1972 8 2 06 28.6 118.6 998 0 2 -- Chart
1972 8 2 12 29.2 118.0 998 0 2 -- Chart
1972 8 2 18 29.7 117.3 1000 0 2 -- Chart
1972 8 3 00 30.0 117.0 1000 0 2 -- Chart
1972 8 3 06 30.2 117.1 998 0 6 -- Chart
1972 8 3 12 30.5 117.5 998 0 6 -- Chart
1972 8 3 18 30.7 117.7 998 0 6 -- Chart
1972 8 4 00 30.9 118.0 998 0 6 -- Chart
Japan Meteorological Agency Best Track Data | Correction Date : 1989-06-01
< Typhoon 197211 1972 Season Typhoon 197213 >

Help